Tetonia, Idaho
Current Conditions -  °F | °C
As of 10:56 AM on Monday 24 Nov 2014 (Local Time) from KDIJ Reporting Station
Broken Clouds Broken Clouds  
Wind Chill: 27°   Ceiling: 5500
Heat Index: 27°   Visibility: 10mi
Dew Point: 13°   Wind: 3mph
Humidity: 56%   Direction: 70°ENE
Pressure: 30.26"   Gusts: NA
Location:  43.82°N, 111.16°W
Report Text: KDIJ 241756Z AUTO 07003KT 10SM SCT042 BKN055 M03/M11 A3026 RMK AO2 53028 T10271105 11033 21111 SLP261
Loading
Personal Weather Stations






























Interactive Weather Map New forecast layout! Learn more

10-Day Weather Forecast

Advertisements
Track Severe Weather on mobile